Time;durP1;ratioP1;P1;durP2;ratioP2;P2;SDS_P1;SDS_P2;PMS_P1;PMS_P2;Temp;Humidity;BMP_temperature;BMP_pressure;BME280_temperature;BME280_humidity;BME280_pressure;Samples;Min_cycle;Max_cycle;Signal;HPM_P1;HPM_P2
2022/05/20 00:01:42;;;;;;;26.73;23.93;;;17.20;99.90;;;;;;5057716;28;20459;-38
2022/05/20 00:04:08;;;;;;;26.80;24.10;;;17.30;99.90;;;;;;5087242;28;20181;-39
2022/05/20 00:06:33;;;;;;;29.27;26.10;;;17.30;99.90;;;;;;5072314;28;20193;-39
2022/05/20 00:08:59;;;;;;;30.23;27.03;;;17.30;99.90;;;;;;5072144;28;20640;-42
2022/05/20 00:11:25;;;;;;;31.47;28.17;;;17.30;99.90;;;;;;5071576;28;20638;-39
2022/05/20 00:13:50;;;;;;;29.53;26.20;;;17.20;99.90;;;;;;5072054;28;20275;-38
2022/05/20 00:16:16;;;;;;;29.30;26.27;;;17.20;99.90;;;;;;5064408;28;20187;-41
2022/05/20 00:18:42;;;;;;;31.47;28.07;;;17.10;99.90;;;;;;5067572;28;20284;-40
2022/05/20 00:21:08;;;;;;;33.50;28.60;;;17.10;99.90;;;;;;5073927;28;20188;-38
2022/05/20 00:23:34;;;;;;;33.30;27.97;;;17.00;99.90;;;;;;5071617;28;20415;-39
2022/05/20 00:25:59;;;;;;;32.47;28.77;;;16.90;99.90;;;;;;5071938;28;20224;-38
2022/05/20 00:28:28;;;;;;;32.00;28.60;;;16.80;99.90;;;;;;5070418;28;20268;-38
2022/05/20 00:31:00;;;;;;;33.00;29.40;;;16.70;99.90;;;;;;5065528;28;20684;-38
2022/05/20 00:33:27;;;;;;;33.20;29.70;;;16.60;99.90;;;;;;5067796;28;20812;-38
2022/05/20 00:35:54;;;;;;;33.03;29.53;;;16.50;99.90;;;;;;5071801;28;20422;-38
2022/05/20 00:38:20;;;;;;;32.17;28.73;;;16.40;99.90;;;;;;5071595;28;20427;-38
2022/05/20 00:40:48;;;;;;;30.27;26.87;;;16.40;99.90;;;;;;5070837;28;20458;-38
2022/05/20 00:43:26;;;;;;;33.43;28.43;;;16.40;99.90;;;;;;5071338;28;20778;-41
2022/05/20 00:45:57;;;;;;;30.03;26.57;;;16.30;99.90;;;;;;5066177;28;20525;-41
2022/05/20 00:48:23;;;;;;;28.20;25.40;;;16.30;99.90;;;;;;5064554;28;20415;-39
2022/05/20 00:50:59;;;;;;;28.93;25.57;;;16.30;99.90;;;;;;5070937;28;20506;-40
2022/05/20 00:53:30;;;;;;;29.33;25.70;;;16.30;99.90;;;;;;5071342;28;20543;-39
2022/05/20 00:55:56;;;;;;;28.87;25.77;;;16.30;99.90;;;;;;5071307;28;20801;-40
2022/05/20 00:58:23;;;;;;;28.00;25.10;;;16.30;99.90;;;;;;5071124;28;20940;-39
2022/05/20 01:00:54;;;;;;;29.27;26.07;;;16.20;99.90;;;;;;5065864;28;20500;-38
2022/05/20 01:03:29;;;;;;;29.20;26.10;;;16.20;99.90;;;;;;5067567;28;20539;-39
2022/05/20 01:05:57;;;;;;;29.10;26.00;;;16.10;99.90;;;;;;5070961;28;20431;-39
2022/05/20 01:08:30;;;;;;;30.07;26.60;;;16.00;99.90;;;;;;5071278;28;20426;-39
2022/05/20 01:10:57;;;;;;;28.43;25.33;;;16.10;99.90;;;;;;5069991;28;20782;-38
2022/05/20 01:13:27;;;;;;;28.77;25.63;;;16.20;99.90;;;;;;5071091;28;20425;-39
2022/05/20 01:15:54;;;;;;;31.17;26.73;;;16.10;99.90;;;;;;5066922;28;20522;-39
2022/05/20 01:18:20;;;;;;;31.47;26.77;;;16.00;99.90;;;;;;5063834;28;20446;-38
2022/05/20 01:20:51;;;;;;;32.83;26.63;;;15.90;99.90;;;;;;5072403;28;20855;-38
2022/05/20 01:23:26;;;;;;;30.73;27.53;;;15.80;99.90;;;;;;5070695;28;20913;-38
2022/05/20 01:25:54;;;;;;;27.83;24.93;;;15.70;99.90;;;;;;5070613;28;20419;-39
2022/05/20 01:28:22;;;;;;;32.60;26.77;;;15.50;99.90;;;;;;5070781;28;20436;-38
2022/05/20 01:30:56;;;;;;;32.33;28.83;;;15.40;99.90;;;;;;5067060;28;20419;-38
2022/05/20 01:33:40;;;;;;;30.80;26.50;;;15.50;99.90;;;;;;5064049;28;20434;-39
2022/05/20 01:36:10;;;;;;;30.07;26.90;;;15.50;99.90;;;;;;5070326;28;20419;-38
2022/05/20 01:38:36;;;;;;;32.03;28.00;;;15.40;99.90;;;;;;5070410;28;20431;-38
2022/05/20 01:41:07;;;;;;;33.60;26.77;;;15.40;99.90;;;;;;5069694;28;20565;-38
2022/05/20 01:43:43;;;;;;;31.87;26.20;;;15.40;99.90;;;;;;5069109;28;20261;-42
2022/05/20 01:46:43;;;;;;;28.70;25.17;;;15.50;99.90;;;;;;5065848;28;20647;-40
2022/05/20 01:49:24;;;;;;;30.47;27.30;;;15.60;99.90;;;;;;5069962;28;20431;-38
2022/05/20 01:51:57;;;;;;;28.57;25.43;;;15.60;99.90;;;;;;5069438;28;20418;-40
2022/05/20 01:54:54;;;;;;;32.20;26.00;;;15.50;99.90;;;;;;5070069;28;20415;-39
2022/05/20 01:57:22;;;;;;;35.00;27.70;;;15.60;99.90;;;;;;5069957;28;20948;-39
2022/05/20 01:59:55;;;;;;;31.63;27.20;;;15.50;99.90;;;;;;5069459;28;20554;-39
2022/05/20 02:02:53;;;;;;;34.80;27.60;;;15.60;99.90;;;;;;5056834;28;20432;-39
2022/05/20 02:05:31;;;;;;;31.40;28.07;;;15.60;99.90;;;;;;5057972;28;20447;-38
2022/05/20 02:08:05;;;;;;;32.63;28.90;;;15.70;99.90;;;;;;5069794;28;20418;-38
2022/05/20 02:10:47;;;;;;;32.13;28.73;;;15.70;99.90;;;;;;5068061;28;20580;-38
2022/05/20 02:13:16;;;;;;;36.27;28.27;;;15.70;99.90;;;;;;5058398;28;20561;-38
2022/05/20 02:15:47;;;;;;;34.57;28.47;;;15.70;99.90;;;;;;5069805;28;20452;-40
2022/05/20 02:18:26;;;;;;;31.00;27.73;;;15.80;99.90;;;;;;5061589;28;20520;-38
2022/05/20 02:20:56;;;;;;;35.40;30.20;;;15.80;99.90;;;;;;5070229;28;20469;-38
2022/05/20 02:23:28;;;;;;;33.30;29.67;;;15.90;99.90;;;;;;5068317;28;20876;-39
2022/05/20 02:25:57;;;;;;;35.47;29.70;;;15.80;99.90;;;;;;5069332;28;20424;-39
2022/05/20 02:28:28;;;;;;;31.00;27.70;;;15.80;99.90;;;;;;5068332;28;20844;-38
2022/05/20 02:30:55;;;;;;;33.40;27.10;;;15.80;99.90;;;;;;5069111;28;20462;-40
2022/05/20 02:33:24;;;;;;;32.77;28.13;;;15.80;99.90;;;;;;5057404;28;20484;-38
2022/05/20 02:35:50;;;;;;;30.90;27.60;;;15.80;99.90;;;;;;5069380;28;20423;-39
2022/05/20 02:38:22;;;;;;;32.43;28.83;;;15.90;99.90;;;;;;5069220;28;20479;-39
2022/05/20 02:40:51;;;;;;;31.33;27.43;;;15.80;99.90;;;;;;5068624;28;20463;-38
2022/05/20 02:43:17;;;;;;;34.00;28.93;;;15.70;99.90;;;;;;5069424;28;20469;-39
2022/05/20 02:45:46;;;;;;;30.93;27.53;;;15.60;99.90;;;;;;5069359;28;20472;-40
2022/05/20 02:48:15;;;;;;;32.73;28.00;;;15.60;99.90;;;;;;5057631;28;20439;-39
2022/05/20 02:50:41;;;;;;;29.90;26.60;;;15.60;99.90;;;;;;5068283;28;20423;-39
2022/05/20 02:53:06;;;;;;;35.60;28.83;;;15.40;99.90;;;;;;5069148;28;20518;-38
2022/05/20 02:55:32;;;;;;;29.10;25.70;;;15.30;99.90;;;;;;5068829;28;20432;-38
2022/05/20 02:57:58;;;;;;;30.30;26.70;;;15.20;99.90;;;;;;5069159;28;20185;-41
2022/05/20 03:04:09;;;;;;;27.40;24.33;;;15.10;99.90;;;;;;5057170;28;20271;-38
2022/05/20 03:05:55;;;;;;;30.83;25.13;;;15.00;99.90;;;;;;5066601;28;20423;-38
2022/05/20 03:08:20;;;;;;;32.77;27.33;;;15.00;99.90;;;;;;5069272;28;20451;-38
2022/05/20 03:10:46;;;;;;;29.80;26.60;;;15.20;99.90;;;;;;5067876;28;20993;-38
2022/05/20 03:13:12;;;;;;;29.87;26.10;;;15.30;99.90;;;;;;5069251;28;20189;-39
2022/05/20 03:15:39;;;;;;;33.03;27.00;;;15.30;99.90;;;;;;5068962;28;20423;-38
2022/05/20 03:18:06;;;;;;;34.73;30.10;;;15.30;99.90;;;;;;5059365;28;20484;-38
2022/05/20 03:20:32;;;;;;;32.07;28.63;;;15.30;99.90;;;;;;5070374;28;20467;-40
2022/05/20 03:22:58;;;;;;;32.90;27.97;;;15.30;99.90;;;;;;5068882;28;20425;-38
2022/05/20 03:25:24;;;;;;;30.80;26.87;;;15.20;99.90;;;;;;5068929;28;20423;-39
2022/05/20 03:27:50;;;;;;;31.90;26.20;;;15.10;99.90;;;;;;5067604;28;21047;-41
2022/05/20 03:30:16;;;;;;;28.83;25.73;;;15.00;99.90;;;;;;5068243;28;20753;-39
2022/05/20 03:32:42;;;;;;;34.70;26.70;;;15.00;99.90;;;;;;5060362;28;20251;-41
2022/05/20 03:35:08;;;;;;;34.23;27.63;;;15.00;99.90;;;;;;5068575;28;20427;-39
2022/05/20 03:37:34;;;;;;;31.33;25.50;;;15.00;99.90;;;;;;5068714;28;20195;-38
2022/05/20 03:40:00;;;;;;;33.20;27.77;;;14.90;99.90;;;;;;5066737;28;20475;-39
2022/05/20 03:42:26;;;;;;;30.43;26.27;;;14.90;99.90;;;;;;5068599;28;20260;-38
2022/05/20 03:44:52;;;;;;;30.53;26.23;;;14.90;99.90;;;;;;5068749;28;20185;-40
2022/05/20 03:47:18;;;;;;;34.00;28.60;;;14.70;99.90;;;;;;5060273;28;20443;-38
2022/05/20 03:49:45;;;;;;;33.57;27.63;;;14.80;99.90;;;;;;5064379;28;20181;-38
2022/05/20 03:52:11;;;;;;;33.00;27.70;;;14.70;99.90;;;;;;5060105;28;20434;-38
2022/05/20 03:54:37;;;;;;;35.23;28.67;;;14.70;99.90;;;;;;5068438;28;20416;-38
2022/05/20 03:57:04;;;;;;;31.00;27.30;;;14.70;99.90;;;;;;5084082;28;20735;-38
2022/05/20 03:59:33;;;;;;;35.03;27.73;;;14.70;99.90;;;;;;5068191;28;20451;-38
2022/05/20 04:01:59;;;;;;;31.30;27.83;;;14.70;99.90;;;;;;5081038;28;21010;-38
2022/05/20 04:04:38;;;;;;;31.67;27.83;;;14.70;99.90;;;;;;5064154;28;20420;-40
2022/05/20 04:07:09;;;;;;;36.33;29.63;;;14.80;99.90;;;;;;5068754;28;20484;-40
2022/05/20 04:09:35;;;;;;;36.33;29.40;;;14.90;99.90;;;;;;5068086;28;20424;-38
2022/05/20 04:12:05;;;;;;;35.43;28.60;;;14.90;99.90;;;;;;5068211;28;20433;-38
2022/05/20 04:14:31;;;;;;;34.90;28.80;;;15.00;99.90;;;;;;5068164;28;20518;-38
2022/05/20 04:16:57;;;;;;;35.43;28.80;;;15.00;99.90;;;;;;5066299;28;20908;-39
2022/05/20 04:19:30;;;;;;;30.70;27.40;;;15.10;99.90;;;;;;5056763;28;20497;-38
2022/05/20 04:22:01;;;;;;;32.87;28.17;;;15.20;99.90;;;;;;5070135;28;20189;-39
2022/05/20 04:24:27;;;;;;;35.13;30.27;;;15.20;99.90;;;;;;5071821;28;20426;-38
2022/05/20 04:26:53;;;;;;;38.63;30.50;;;15.30;99.90;;;;;;5071825;28;20427;-38
2022/05/20 04:29:18;;;;;;;38.03;31.93;;;15.30;99.90;;;;;;5071912;28;20185;-39
2022/05/20 04:31:48;;;;;;;38.40;32.47;;;15.40;99.90;;;;;;5071259;28;20425;-38
2022/05/20 04:34:14;;;;;;;36.67;30.57;;;15.40;99.90;;;;;;5067806;28;20473;-39
2022/05/20 04:36:40;;;;;;;41.43;31.47;;;15.50;99.90;;;;;;5071583;28;20463;-39
2022/05/20 04:39:06;;;;;;;40.17;32.70;;;15.60;99.90;;;;;;5071604;28;20205;-39
2022/05/20 04:47:03;;;;;;;35.50;29.63;;;15.80;99.90;;;;;;5067987;28;20433;-38
2022/05/20 04:49:31;;;;;;;35.43;29.90;;;15.80;99.90;;;;;;5064843;28;20423;-38
2022/05/20 04:52:00;;;;;;;34.67;28.40;;;15.80;99.90;;;;;;5070521;28;20463;-38
2022/05/20 04:57:38;;;;;;;32.00;26.63;;;15.90;99.90;;;;;;5071052;28;20527;-38
2022/05/20 05:00:09;;;;;;;32.80;28.03;;;16.10;99.90;;;;;;5070328;28;20474;-38
2022/05/20 05:02:35;;;;;;;34.57;28.77;;;16.20;99.90;;;;;;5068034;28;20435;-39
2022/05/20 05:05:01;;;;;;;36.80;30.33;;;16.20;99.90;;;;;;5064586;28;20422;-39
2022/05/20 05:07:27;;;;;;;36.80;30.63;;;16.30;99.90;;;;;;5070918;28;20473;-41
2022/05/20 05:09:53;;;;;;;34.77;29.50;;;16.20;99.90;;;;;;5070611;28;20423;-39
2022/05/20 05:12:20;;;;;;;31.67;27.53;;;16.20;99.90;;;;;;5071001;28;20185;-39
2022/05/20 05:14:48;;;;;;;34.23;29.27;;;16.20;99.90;;;;;;5070984;28;20462;-39
2022/05/20 05:20:05;;;;;;;32.30;27.97;;;16.20;99.90;;;;;;5066384;28;20534;-39
2022/05/20 05:22:30;;;;;;;31.40;27.20;;;16.20;99.90;;;;;;5073250;28;20419;-38
2022/05/20 05:24:56;;;;;;;31.17;27.80;;;16.30;99.90;;;;;;5070693;28;20791;-41
2022/05/20 05:27:21;;;;;;;33.33;27.50;;;16.20;99.90;;;;;;5070521;28;20196;-38
2022/05/20 05:29:47;;;;;;;31.10;27.50;;;16.20;99.90;;;;;;5069937;28;20196;-40
2022/05/20 05:32:13;;;;;;;32.57;27.97;;;16.20;99.90;;;;;;5062401;28;20599;-39
2022/05/20 05:34:38;;;;;;;30.87;26.63;;;16.20;99.90;;;;;;5058009;28;20224;-38
2022/05/20 05:37:04;;;;;;;34.67;28.20;;;16.20;99.90;;;;;;5070491;28;20189;-38
2022/05/20 05:39:31;;;;;;;38.10;28.33;;;16.20;99.90;;;;;;5070274;28;20204;-38
2022/05/20 05:41:59;;;;;;;29.80;26.43;;;16.20;99.90;;;;;;5069617;28;20259;-41
2022/05/20 05:44:25;;;;;;;32.57;26.17;;;16.30;99.90;;;;;;5070367;28;20429;-41
2022/05/20 05:46:50;;;;;;;28.20;22.83;;;16.40;99.90;;;;;;5087892;28;20418;-44
2022/05/20 05:49:16;;;;;;;29.73;23.87;;;16.50;99.90;;;;;;5063814;28;20220;-39
2022/05/20 05:51:42;;;;;;;24.10;21.60;;;16.60;99.90;;;;;;5068786;28;20216;-39
2022/05/20 05:54:08;;;;;;;27.13;23.33;;;16.80;99.90;;;;;;5069802;28;20229;-38
2022/05/20 05:56:36;;;;;;;24.37;21.67;;;17.00;99.90;;;;;;5070100;28;20473;-42
2022/05/20 05:59:02;;;;;;;23.43;20.70;;;17.20;99.90;;;;;;5070009;28;20665;-39
2022/05/20 06:01:28;;;;;;;23.33;20.07;;;17.40;99.90;;;;;;5069311;28;20426;-42
2022/05/20 06:03:54;;;;;;;22.63;19.03;;;17.60;99.90;;;;;;5060136;28;20447;-44
2022/05/20 06:06:20;;;;;;;25.13;21.93;;;17.80;99.90;;;;;;5067786;28;20431;-39
2022/05/20 06:08:46;;;;;;;27.53;22.20;;;18.00;99.90;;;;;;5068199;28;20208;-39
2022/05/20 06:11:12;;;;;;;25.03;22.33;;;18.10;99.90;;;;;;5069351;28;21006;-38
2022/05/20 06:13:38;;;;;;;28.57;25.47;;;18.20;99.90;;;;;;5069892;28;20181;-40
2022/05/20 06:16:04;;;;;;;26.73;22.90;;;18.20;99.90;;;;;;5069644;28;20420;-39
2022/05/20 06:18:29;;;;;;;28.47;21.77;;;18.40;99.90;;;;;;5062815;28;20193;-38
2022/05/20 06:20:55;;;;;;;21.37;18.80;;;18.60;99.90;;;;;;5068644;28;20467;-41
2022/05/20 06:23:21;;;;;;;21.97;18.10;;;18.80;99.90;;;;;;5068744;28;20185;-43
2022/05/20 06:25:47;;;;;;;24.80;19.87;;;18.90;99.90;;;;;;5068781;28;20190;-40
2022/05/20 06:28:16;;;;;;;21.00;17.53;;;19.10;99.90;;;;;;5068046;28;20189;-41
2022/05/20 06:30:43;;;;;;;20.67;17.80;;;19.20;99.90;;;;;;5069129;28;20188;-38
2022/05/20 06:33:10;;;;;;;20.30;17.87;;;19.30;99.90;;;;;;5064995;28;20519;-42
2022/05/20 06:41:06;;;;;;;28.80;24.30;;;19.50;99.90;;;;;;5068606;28;20470;-41
2022/05/20 06:43:32;;;;;;;30.87;23.67;;;19.60;99.90;;;;;;5069347;28;20432;-39
2022/05/20 06:46:01;;;;;;;26.77;23.90;;;19.60;99.90;;;;;;5068563;28;20426;-40
2022/05/20 06:48:51;;;;;;;26.43;23.57;;;19.70;99.90;;;;;;5066078;28;20439;-38
2022/05/20 06:51:28;;;;;;;25.67;22.87;;;19.90;99.90;;;;;;5063912;28;20416;-39
2022/05/20 06:53:57;;;;;;;32.00;27.07;;;20.00;99.90;;;;;;5069170;28;20450;-39
2022/05/20 06:56:25;;;;;;;27.83;24.23;;;20.00;99.90;;;;;;5069058;28;20794;-39
2022/05/20 06:58:51;;;;;;;28.90;25.80;;;20.00;99.90;;;;;;5068855;28;20430;-39
2022/05/20 07:01:18;;;;;;;31.17;27.40;;;20.00;99.90;;;;;;5068512;28;20534;-42
2022/05/20 07:03:44;;;;;;;28.50;25.27;;;20.10;99.90;;;;;;5062063;28;20530;-44
2022/05/20 07:06:11;;;;;;;29.67;25.67;;;20.10;99.90;;;;;;5068463;28;20178;-39
2022/05/20 07:08:37;;;;;;;32.93;27.43;;;20.10;99.90;;;;;;5068914;28;20419;-42
2022/05/20 07:11:04;;;;;;;37.57;29.73;;;20.20;99.90;;;;;;5068415;28;20431;-39
2022/05/20 07:13:31;;;;;;;36.00;32.07;;;20.20;99.90;;;;;;5068861;28;20427;-38
2022/05/20 07:15:57;;;;;;;38.63;33.13;;;20.20;99.90;;;;;;5069151;28;20510;-39
2022/05/20 07:18:27;;;;;;;37.80;32.50;;;20.10;99.90;;;;;;5065068;28;20436;-41
2022/05/20 07:20:52;;;;;;;35.93;31.77;;;20.10;99.90;;;;;;5085113;28;20462;-39
2022/05/20 07:23:18;;;;;;;40.10;32.67;;;20.10;99.90;;;;;;5068882;28;20419;-41
2022/05/20 07:25:44;;;;;;;36.67;32.63;;;20.20;99.90;;;;;;5067579;28;20200;-41
2022/05/20 07:28:10;;;;;;;42.43;32.83;;;20.30;99.90;;;;;;5067359;28;20188;-41
2022/05/20 07:30:36;;;;;;;34.57;30.57;;;20.30;99.90;;;;;;5068288;28;20424;-39
2022/05/20 07:33:02;;;;;;;36.30;31.13;;;20.50;99.90;;;;;;5069089;28;20451;-39
2022/05/20 07:35:28;;;;;;;33.87;29.67;;;20.40;99.90;;;;;;5057313;28;21199;-39
2022/05/20 07:37:55;;;;;;;33.10;29.43;;;20.40;99.90;;;;;;5068811;28;20401;-40
2022/05/20 07:40:22;;;;;;;30.33;27.10;;;20.30;99.90;;;;;;5067680;28;20806;-42
2022/05/20 07:42:48;;;;;;;28.10;25.10;;;20.30;99.90;;;;;;5068656;28;20779;-40
2022/05/20 07:45:15;;;;;;;27.97;23.17;;;20.40;99.90;;;;;;5083914;28;20427;-39
2022/05/20 07:47:42;;;;;;;28.93;22.90;;;20.50;99.90;;;;;;5067939;28;20212;-39
2022/05/20 07:50:09;;;;;;;24.30;21.70;;;20.50;99.90;;;;;;5061257;28;20598;-42
2022/05/20 07:55:25;;;;;;;24.47;21.67;;;20.50;99.90;;;;;;5063411;28;20969;-41
2022/05/20 07:57:52;;;;;;;24.70;22.30;;;20.50;99.90;;;;;;5071597;28;20427;-40
2022/05/20 08:00:20;;;;;;;25.27;22.70;;;20.50;99.90;;;;;;5071741;28;20834;-39
2022/05/20 08:02:46;;;;;;;25.03;22.37;;;20.40;99.90;;;;;;5072485;28;20422;-38
2022/05/20 08:05:12;;;;;;;25.83;23.07;;;20.30;99.90;;;;;;5063033;28;20443;-41
2022/05/20 08:07:42;;;;;;;25.67;22.63;;;20.20;99.90;;;;;;5071939;28;20472;-39
2022/05/20 08:10:13;;;;;;;27.73;23.83;;;20.30;99.90;;;;;;5071556;28;20185;-41
2022/05/20 08:12:38;;;;;;;28.33;24.00;;;20.20;99.90;;;;;;5072215;28;20957;-39
2022/05/20 08:15:05;;;;;;;28.37;25.27;;;20.20;99.90;;;;;;5072164;28;20435;-40
2022/05/20 08:17:33;;;;;;;27.87;24.90;;;20.30;99.90;;;;;;5072043;28;20495;-39
2022/05/20 08:19:59;;;;;;;29.07;22.97;;;20.30;99.90;;;;;;5067455;28;20474;-40
2022/05/20 08:22:24;;;;;;;27.53;24.60;;;20.40;99.90;;;;;;5074340;28;20948;-39
2022/05/20 08:24:54;;;;;;;29.03;25.20;;;20.60;99.90;;;;;;5072013;28;20227;-40
2022/05/20 08:27:21;;;;;;;27.57;23.90;;;20.70;99.90;;;;;;5071725;28;20200;-39
2022/05/20 08:29:48;;;;;;;28.00;25.00;;;20.60;99.90;;;;;;5071399;28;20435;-40
2022/05/20 08:32:15;;;;;;;32.37;26.50;;;20.70;99.90;;;;;;5071490;28;20796;-41
2022/05/20 08:34:45;;;;;;;31.50;26.13;;;20.70;99.90;;;;;;5061361;28;20474;-44
2022/05/20 08:37:13;;;;;;;31.13;27.83;;;20.80;99.90;;;;;;5071541;28;20450;-42
2022/05/20 08:39:39;;;;;;;30.20;26.07;;;20.80;99.90;;;;;;5071151;28;20504;-39
2022/05/20 08:42:09;;;;;;;31.13;27.27;;;20.90;99.90;;;;;;5071397;28;20434;-43
2022/05/20 08:44:35;;;;;;;29.20;26.10;;;20.80;99.90;;;;;;5086787;28;20426;-41
2022/05/20 08:47:13;;;;;;;29.30;25.73;;;20.70;99.90;;;;;;5070577;28;20419;-41
2022/05/20 08:49:38;;;;;;;28.70;25.67;;;20.60;99.90;;;;;;5064519;28;20599;-39
2022/05/20 08:52:05;;;;;;;28.23;25.17;;;20.50;99.90;;;;;;5063357;28;20469;-39
2022/05/20 08:54:31;;;;;;;28.47;24.90;;;20.50;99.90;;;;;;5071448;28;20211;-42
2022/05/20 08:56:58;;;;;;;30.93;24.40;;;20.50;99.90;;;;;;5071448;28;20459;-41
2022/05/20 08:59:24;;;;;;;27.40;24.40;;;20.40;99.90;;;;;;5071385;28;20471;-43
2022/05/20 09:01:52;;;;;;;29.13;24.87;;;20.50;99.90;;;;;;5070640;28;20917;-39
2022/05/20 09:04:22;;;;;;;33.37;25.97;;;20.50;99.90;;;;;;5067759;28;20233;-38
2022/05/20 09:07:09;;;;;;;31.30;25.50;;;20.50;99.90;;;;;;5061919;28;20420;-43
2022/05/20 09:09:54;;;;;;;28.80;21.83;;;20.50;99.90;;;;;;5069856;28;20427;-44
2022/05/20 09:12:36;;;;;;;27.63;23.60;;;20.50;99.90;;;;;;5071060;28;20439;-40
2022/05/20 09:18:08;;;;;;;31.80;24.37;;;20.40;99.90;;;;;;5071042;28;20419;-42
2022/05/20 09:20:45;;;;;;;29.77;25.10;;;20.30;99.90;;;;;;5062657;28;20824;-40
2022/05/20 09:23:13;;;;;;;28.67;23.83;;;20.40;99.90;;;;;;5070919;28;20423;-41
2022/05/20 09:25:46;;;;;;;30.83;25.10;;;20.40;99.90;;;;;;5068594;28;20434;-40
2022/05/20 09:28:33;;;;;;;34.90;26.47;;;20.50;99.90;;;;;;5070914;28;20435;-39
2022/05/20 09:31:43;;;;;;;35.53;27.60;;;20.50;99.90;;;;;;5058082;28;20449;-40
2022/05/20 09:34:26;;;;;;;30.37;26.10;;;20.60;99.90;;;;;;5027582;28;20429;-40
2022/05/20 09:37:05;;;;;;;28.70;25.63;;;20.80;99.90;;;;;;5061497;28;20459;-44
2022/05/20 09:39:34;;;;;;;27.77;24.43;;;21.00;99.90;;;;;;5070326;28;21001;-42
2022/05/20 09:42:10;;;;;;;28.70;24.37;;;21.20;99.90;;;;;;5070190;28;20440;-42
2022/05/20 09:44:41;;;;;;;30.90;27.50;;;21.40;99.90;;;;;;5070486;28;20426;-42
2022/05/20 09:47:19;;;;;;;33.07;25.73;;;21.60;99.90;;;;;;5064420;28;20776;-43
2022/05/20 09:49:52;;;;;;;33.80;27.40;;;21.70;99.90;;;;;;5065548;28;20487;-40
2022/05/20 09:52:25;;;;;;;26.07;22.93;;;21.70;99.90;;;;;;5054449;28;20529;-41
2022/05/20 09:55:00;;;;;;;26.73;23.90;;;21.70;99.90;;;;;;5067870;28;20753;-42
2022/05/20 09:57:37;;;;;;;28.23;25.30;;;21.70;99.90;;;;;;5069304;28;20439;-39
2022/05/20 10:00:09;;;;;;;31.77;23.37;;;21.50;99.90;;;;;;5070223;28;20574;-40
2022/05/20 10:02:58;;;;;;;28.43;23.70;;;21.50;99.90;;;;;;5069932;28;20419;-41
2022/05/20 10:05:36;;;;;;;31.40;26.93;;;21.60;99.90;;;;;;5068547;28;20443;-43
2022/05/20 10:08:15;;;;;;;33.97;27.80;;;21.70;99.90;;;;;;5058947;28;20423;-41
2022/05/20 10:10:49;;;;;;;26.73;23.97;;;21.70;99.90;;;;;;5063949;28;20458;-42
2022/05/20 10:13:31;;;;;;;26.43;21.57;;;21.60;99.90;;;;;;5069791;28;20423;-39
2022/05/20 10:16:36;;;;;;;27.90;22.43;;;21.70;99.90;;;;;;5069794;28;20488;-39
2022/05/20 10:19:11;;;;;;;25.70;21.20;;;21.80;99.90;;;;;;5069143;28;20423;-42
2022/05/20 10:21:54;;;;;;;29.53;23.13;;;21.80;99.90;;;;;;5063740;28;20938;-39
2022/05/20 10:24:44;;;;;;;27.20;22.60;;;21.90;99.90;;;;;;5067279;28;20427;-41
2022/05/20 10:27:33;;;;;;;29.17;24.47;;;22.10;99.90;;;;;;5066100;28;20419;-41
2022/05/20 10:33:03;;;;;;;28.30;23.43;;;22.20;99.90;;;;;;5069521;28;20423;-41
2022/05/20 10:36:11;;;;;;;26.20;22.43;;;22.30;99.90;;;;;;5069543;28;20844;-42
2022/05/20 10:38:43;;;;;;;27.10;20.17;;;22.30;99.90;;;;;;4996745;28;20438;-40
2022/05/20 10:41:20;;;;;;;25.93;23.20;;;22.40;99.90;;;;;;5058314;28;20474;-42
2022/05/20 10:50:28;;;;;;;26.20;22.87;;;22.60;99.90;;;;;;5067587;28;20993;-39
2022/05/20 10:53:05;;;;;;;26.13;23.10;;;22.60;99.90;;;;;;5056899;28;20998;-40
2022/05/20 10:55:49;;;;;;;26.40;21.70;;;22.70;99.90;;;;;;5068974;28;20921;-45
2022/05/20 10:58:34;;;;;;;25.50;20.43;;;23.00;99.90;;;;;;5068644;28;20494;-40
2022/05/20 11:01:08;;;;;;;25.63;22.93;;;23.20;99.90;;;;;;5067605;28;20470;-41
2022/05/20 11:03:55;;;;;;;25.20;22.23;;;23.30;99.90;;;;;;5067792;28;20432;-42
2022/05/20 11:06:49;;;;;;;27.30;24.27;;;23.50;99.90;;;;;;5065203;28;20791;-39
2022/05/20 11:09:20;;;;;;;24.27;21.63;;;23.70;99.90;;;;;;5065989;28;20813;-41
2022/05/20 11:12:07;;;;;;;27.90;24.90;;;23.80;99.90;;;;;;5068666;28;20474;-44
2022/05/20 11:15:11;;;;;;;28.20;23.40;;;23.80;99.90;;;;;;5068924;28;20425;-42
2022/05/20 11:17:50;;;;;;;26.20;23.27;;;23.70;99.90;;;;;;5068415;28;20449;-44
2022/05/20 11:20:59;;;;;;;27.63;23.60;;;23.60;99.90;;;;;;5068610;28;20450;-44
2022/05/20 11:23:39;;;;;;;24.57;21.80;;;23.60;99.90;;;;;;5060390;28;20423;-39
2022/05/20 11:26:36;;;;;;;25.07;22.27;;;23.60;99.90;;;;;;5063235;28;20429;-43
2022/05/20 11:29:26;;;;;;;24.93;20.70;;;23.60;99.90;;;;;;5068752;28;20514;-41
2022/05/20 11:32:05;;;;;;;32.20;25.10;;;23.60;99.90;;;;;;5070234;28;20411;-42
2022/05/20 11:35:03;;;;;;;27.23;24.33;;;23.60;99.90;;;;;;5073096;28;20427;-41
2022/05/20 11:37:53;;;;;;;28.30;23.50;;;23.70;99.90;;;;;;5063583;28;20420;-42
2022/05/20 11:40:39;;;;;;;25.43;22.80;;;23.70;99.90;;;;;;5071395;28;20477;-42
2022/05/20 11:43:23;;;;;;;26.13;23.17;;;24.00;99.90;;;;;;5060273;28;20480;-42
2022/05/20 11:46:18;;;;;;;24.23;21.70;;;24.00;99.90;;;;;;5072784;28;20477;-44
2022/05/20 11:49:06;;;;;;;25.17;21.57;;;24.10;99.90;;;;;;5071305;28;20449;-42
2022/05/20 11:52:00;;;;;;;24.27;21.77;;;24.30;99.90;;;;;;5068667;28;20475;-41
2022/05/20 11:54:46;;;;;;;24.80;22.17;;;24.40;99.90;;;;;;5070127;28;20472;-40
2022/05/20 11:57:17;;;;;;;28.00;24.30;;;24.30;99.90;;;;;;5071545;28;20946;-45
2022/05/20 12:00:06;;;;;;;24.67;22.17;;;24.30;99.90;;;;;;5072179;28;20502;-42
2022/05/20 12:02:55;;;;;;;23.60;21.20;;;24.40;99.90;;;;;;5072204;28;20981;-41
2022/05/20 12:05:25;;;;;;;24.83;22.20;;;24.40;99.90;;;;;;5071233;28;20415;-41
2022/05/20 12:07:52;;;;;;;25.67;22.97;;;24.30;99.90;;;;;;5060498;28;20490;-45
2022/05/20 12:10:48;;;;;;;24.13;21.73;;;24.20;99.90;;;;;;5069628;28;20458;-45
2022/05/20 12:13:16;;;;;;;23.27;20.90;;;24.20;99.90;;;;;;5061001;28;20423;-41
2022/05/20 12:16:00;;;;;;;22.20;19.80;;;24.30;99.90;;;;;;5072075;28;20513;-42
2022/05/20 12:24:31;;;;;;;22.00;19.90;;;24.70;99.90;;;;;;5064549;28;20518;-39
2022/05/20 12:26:58;;;;;;;23.50;20.87;;;24.70;99.90;;;;;;5070966;28;20426;-40
2022/05/20 12:29:39;;;;;;;21.70;19.40;;;24.70;99.90;;;;;;5071889;28;20458;-44
2022/05/20 12:32:29;;;;;;;22.43;19.60;;;24.70;99.90;;;;;;5071825;28;20430;-46
2022/05/20 12:35:22;;;;;;;19.90;18.00;;;24.70;99.90;;;;;;5066281;28;20431;-41
2022/05/20 12:37:48;;;;;;;21.50;18.77;;;24.50;99.90;;;;;;5048630;28;20427;-41
2022/05/20 12:40:29;;;;;;;24.67;21.00;;;24.50;99.90;;;;;;5068380;28;21036;-41
2022/05/20 12:42:57;;;;;;;19.23;17.33;;;24.30;99.90;;;;;;5070551;28;20185;-40
2022/05/20 12:45:28;;;;;;;20.33;18.33;;;24.20;99.90;;;;;;5071476;28;20758;-39
2022/05/20 12:47:56;;;;;;;23.13;20.60;;;24.20;99.90;;;;;;5070099;28;20423;-42
2022/05/20 12:50:26;;;;;;;23.27;20.97;;;24.20;99.90;;;;;;5071427;28;20419;-44
2022/05/20 12:52:57;;;;;;;22.80;20.50;;;24.00;99.90;;;;;;5061308;28;20475;-43
2022/05/20 12:55:39;;;;;;;20.17;18.23;;;24.00;99.90;;;;;;5071229;28;20419;-43
2022/05/20 12:58:08;;;;;;;24.63;19.30;;;23.80;99.90;;;;;;5070447;28;20442;-40
2022/05/20 13:00:48;;;;;;;22.70;20.50;;;23.70;99.90;;;;;;5071259;28;20467;-39
2022/05/20 13:03:17;;;;;;;24.60;22.10;;;23.70;99.90;;;;;;5071210;28;21076;-40
2022/05/20 13:05:48;;;;;;;25.20;22.60;;;23.60;99.90;;;;;;5071338;28;20415;-45
2022/05/20 13:08:18;;;;;;;24.27;21.80;;;23.60;99.90;;;;;;5063985;28;20425;-40
2022/05/20 13:10:44;;;;;;;22.77;20.67;;;23.50;99.90;;;;;;5070836;28;20481;-40
2022/05/20 13:13:22;;;;;;;21.80;19.67;;;23.50;99.90;;;;;;5069848;28;20527;-41
2022/05/20 13:15:50;;;;;;;26.07;23.50;;;23.40;99.90;;;;;;5071117;28;20453;-41
2022/05/20 13:18:20;;;;;;;25.53;23.00;;;23.30;99.90;;;;;;5070572;28;20423;-39
2022/05/20 13:20:50;;;;;;;26.37;23.53;;;23.20;99.90;;;;;;5071955;28;20469;-43
2022/05/20 13:23:20;;;;;;;26.83;24.07;;;23.10;99.90;;;;;;5058663;28;20482;-44
2022/05/20 13:25:46;;;;;;;26.00;23.30;;;23.00;99.90;;;;;;5070861;28;20778;-41
2022/05/20 13:28:28;;;;;;;24.60;22.10;;;22.90;99.90;;;;;;5069959;28;20839;-42
2022/05/20 13:31:08;;;;;;;26.30;23.63;;;22.90;99.90;;;;;;5070900;28;20510;-42
2022/05/20 13:33:37;;;;;;;25.47;22.67;;;22.80;99.90;;;;;;5070360;28;20431;-42